createdAt,value
2018-07-17T00:02:18.921Z,23.30
2018-07-17T00:04:47.010Z,23.40
2018-07-17T00:07:15.102Z,24.00
2018-07-17T00:09:43.404Z,24.20
2018-07-17T00:12:11.625Z,23.90
2018-07-17T00:14:39.750Z,24.50
2018-07-17T00:17:07.870Z,25.30
2018-07-17T00:19:35.961Z,25.30
2018-07-17T00:22:04.081Z,24.90
2018-07-17T00:24:32.186Z,25.80
2018-07-17T00:27:00.297Z,26.10
2018-07-17T00:29:28.383Z,26.00
2018-07-17T00:31:56.479Z,26.20
2018-07-17T00:34:24.557Z,26.70
2018-07-17T00:36:52.651Z,26.70
2018-07-17T00:39:20.734Z,26.10
2018-07-17T00:44:16.864Z,26.20
2018-07-17T00:46:44.954Z,26.80
2018-07-17T00:49:13.050Z,26.70
2018-07-17T00:51:41.162Z,26.30
2018-07-17T00:54:09.473Z,26.80
2018-07-17T00:56:37.485Z,26.90
2018-07-17T00:59:05.578Z,27.40
2018-07-17T01:01:38.949Z,27.20
2018-07-17T01:04:12.602Z,26.70
2018-07-17T01:06:46.050Z,27.00
2018-07-17T01:09:19.419Z,27.00
2018-07-17T01:11:52.850Z,27.60
2018-07-17T01:14:26.262Z,28.70
2018-07-17T01:16:54.354Z,29.10
2018-07-17T01:21:50.333Z,28.70
2018-07-17T01:24:18.466Z,28.60
2018-07-17T01:26:46.561Z,28.80
2018-07-17T01:29:14.641Z,27.70
2018-07-17T01:31:42.740Z,27.20
2018-07-17T01:34:10.925Z,27.10
2018-07-17T01:36:39.174Z,26.70
2018-07-17T01:39:07.869Z,26.30
2018-07-17T01:41:36.037Z,26.20
2018-07-17T01:44:04.129Z,26.00
2018-07-17T01:46:32.223Z,25.50
2018-07-17T01:49:00.529Z,25.60
2018-07-17T01:51:28.649Z,25.60
2018-07-17T01:53:56.897Z,25.30
2018-07-17T01:56:25.001Z,25.40
2018-07-17T01:58:53.093Z,25.50
2018-07-17T02:03:49.052Z,26.70
2018-07-17T02:06:17.129Z,25.90
2018-07-17T02:08:45.220Z,25.40
2018-07-17T02:11:13.298Z,25.50
2018-07-17T02:13:41.385Z,25.60
2018-07-17T02:16:09.465Z,25.60
2018-07-17T02:18:37.589Z,26.40
2018-07-17T02:21:05.657Z,26.30
2018-07-17T02:23:33.870Z,26.80
2018-07-17T02:26:01.989Z,27.30
2018-07-17T02:28:30.054Z,27.00
2018-07-17T02:30:58.166Z,27.20
2018-07-17T02:33:26.238Z,26.80
2018-07-17T02:35:54.314Z,27.00
2018-07-17T02:38:22.419Z,27.70
2018-07-17T02:40:50.500Z,27.90
2018-07-17T02:43:18.602Z,27.60
2018-07-17T02:45:46.683Z,27.60
2018-07-17T02:48:14.834Z,28.30
2018-07-17T02:50:42.861Z,28.30
2018-07-17T02:55:38.918Z,28.40
2018-07-17T02:58:06.994Z,28.30
2018-07-17T03:00:35.102Z,29.20
2018-07-17T03:03:03.182Z,29.50
2018-07-17T03:05:31.278Z,29.20
2018-07-17T03:07:59.369Z,30.00
2018-07-17T03:10:27.701Z,30.00
2018-07-17T03:12:55.807Z,29.60
2018-07-17T03:15:23.890Z,30.00
2018-07-17T03:20:20.225Z,30.40
2018-07-17T03:22:48.307Z,30.60
2018-07-17T03:25:16.409Z,30.50
2018-07-17T03:27:44.485Z,31.50
2018-07-17T03:30:12.596Z,31.70
2018-07-17T03:32:40.681Z,31.90
2018-07-17T03:35:08.926Z,31.50
2018-07-17T03:37:37.074Z,31.50
2018-07-17T03:40:05.374Z,32.00
2018-07-17T03:42:33.449Z,32.00
2018-07-17T03:45:01.525Z,31.40
2018-07-17T03:47:29.613Z,31.50
2018-07-17T03:49:57.728Z,30.80
2018-07-17T03:52:25.815Z,30.50
2018-07-17T03:54:53.906Z,30.40
2018-07-17T03:57:21.986Z,30.40
2018-07-17T03:59:50.094Z,30.40
2018-07-17T04:02:18.212Z,30.20
2018-07-17T04:04:46.305Z,30.30
2018-07-17T04:07:14.397Z,30.50
2018-07-17T04:09:42.485Z,30.70
2018-07-17T04:12:10.572Z,31.20
2018-07-17T04:14:38.664Z,31.50
2018-07-17T04:17:06.747Z,31.30
2018-07-17T04:19:34.849Z,31.30
2018-07-17T04:22:02.938Z,31.30
2018-07-17T04:24:31.045Z,31.30
2018-07-17T04:26:59.129Z,31.00
2018-07-17T04:29:27.233Z,30.50
2018-07-17T04:31:55.387Z,30.70
2018-07-17T04:34:23.421Z,30.60
2018-07-17T04:36:51.514Z,30.60
2018-07-17T04:39:19.613Z,30.80
2018-07-17T04:41:47.701Z,32.60
2018-07-17T04:44:15.882Z,32.00
2018-07-17T04:46:43.873Z,31.60
2018-07-17T04:49:11.968Z,31.60
2018-07-17T04:51:40.045Z,31.20
2018-07-17T04:54:08.146Z,32.50
2018-07-17T04:56:36.257Z,34.30
2018-07-17T04:59:04.349Z,33.60
2018-07-17T05:01:32.426Z,34.10
2018-07-17T05:04:00.505Z,34.00
2018-07-17T05:06:28.606Z,33.40
2018-07-17T05:11:24.609Z,32.40
2018-07-17T05:13:52.698Z,30.10
2018-07-17T05:16:21.017Z,30.20
2018-07-17T05:18:49.065Z,30.10
2018-07-17T05:21:17.393Z,30.10
2018-07-17T05:23:45.481Z,28.80
2018-07-17T05:26:13.581Z,29.20
2018-07-17T05:28:41.661Z,30.10
2018-07-17T05:31:09.761Z,29.20
2018-07-17T05:33:37.838Z,29.40
2018-07-17T05:36:06.217Z,29.00
2018-07-17T05:38:34.304Z,29.90
2018-07-17T05:41:02.373Z,30.10
2018-07-17T05:43:30.457Z,30.80
2018-07-17T05:45:58.601Z,29.80
2018-07-17T05:48:26.686Z,29.30
2018-07-17T05:50:54.780Z,29.70
2018-07-17T05:53:22.878Z,28.50
2018-07-17T05:55:50.994Z,29.80
2018-07-17T05:58:19.138Z,29.50
2018-07-17T06:00:47.234Z,30.40
2018-07-17T06:03:15.444Z,30.10
2018-07-17T06:05:43.487Z,31.20
2018-07-17T06:08:11.830Z,31.30
2018-07-17T06:10:39.957Z,30.80
2018-07-17T06:13:08.082Z,29.90
2018-07-17T06:15:36.385Z,30.30
2018-07-17T06:18:04.525Z,30.00
2018-07-17T06:20:32.654Z,27.00
2018-07-17T06:23:00.814Z,29.10
2018-07-17T06:25:28.913Z,28.10
2018-07-17T06:27:57.025Z,27.30
2018-07-17T06:30:25.129Z,27.30
2018-07-17T06:32:53.257Z,28.20
2018-07-17T06:35:21.347Z,28.70
2018-07-17T06:37:49.433Z,27.60
2018-07-17T06:40:17.545Z,27.10
2018-07-17T06:42:45.646Z,27.40
2018-07-17T06:45:13.754Z,26.70
2018-07-17T06:47:41.849Z,27.60
2018-07-17T06:50:10.055Z,26.40
2018-07-17T06:52:38.061Z,25.70
2018-07-17T06:55:06.185Z,24.70
2018-07-17T06:57:34.329Z,25.90
2018-07-17T07:00:02.437Z,26.00
2018-07-17T07:02:30.541Z,26.30
2018-07-17T07:04:58.670Z,25.70
2018-07-17T07:07:26.778Z,25.50
2018-07-17T07:09:54.892Z,26.10
2018-07-17T07:12:22.994Z,26.30
2018-07-17T07:14:51.069Z,25.70
2018-07-17T07:17:19.186Z,26.10
2018-07-17T07:19:47.296Z,27.10
2018-07-17T07:22:15.405Z,25.90
2018-07-17T07:24:43.510Z,25.40
2018-07-17T07:27:11.617Z,25.30
2018-07-17T07:29:39.748Z,25.50
2018-07-17T07:32:07.862Z,24.60
2018-07-17T07:34:35.938Z,25.40
2018-07-17T07:37:04.034Z,25.70
2018-07-17T07:39:32.111Z,24.30
2018-07-17T07:42:00.205Z,23.70
2018-07-17T07:44:28.289Z,23.60
2018-07-17T07:46:56.401Z,22.50
2018-07-17T07:49:24.494Z,22.70
2018-07-17T07:51:52.593Z,22.80
2018-07-17T07:54:20.681Z,23.90
2018-07-17T07:56:48.778Z,24.40
2018-07-17T07:59:16.871Z,23.00
2018-07-17T08:01:44.965Z,23.80
2018-07-17T08:04:13.064Z,21.50
2018-07-17T08:06:41.185Z,21.50
2018-07-17T08:09:09.565Z,22.60
2018-07-17T08:11:38.003Z,20.60
2018-07-17T08:14:06.078Z,20.60
2018-07-17T08:16:34.197Z,19.60
2018-07-17T08:19:02.286Z,19.30
2018-07-17T08:21:30.366Z,19.50
2018-07-17T08:23:58.461Z,18.70
2018-07-17T08:26:26.557Z,19.20
2018-07-17T08:28:54.654Z,18.10
2018-07-17T08:31:22.737Z,18.30
2018-07-17T08:33:50.817Z,20.30
2018-07-17T08:36:18.909Z,18.60
2018-07-17T08:41:14.946Z,18.20
2018-07-17T08:43:43.074Z,17.40
2018-07-17T08:46:11.108Z,18.20
2018-07-17T08:48:39.189Z,20.60
2018-07-17T08:51:07.301Z,20.20
2018-07-17T08:53:35.390Z,17.40
2018-07-17T08:56:03.495Z,19.70
2018-07-17T08:58:31.575Z,18.80
2018-07-17T09:00:59.703Z,16.50
2018-07-17T09:03:27.796Z,17.60
2018-07-17T09:05:55.930Z,18.60
2018-07-17T09:08:23.977Z,16.90
2018-07-17T09:10:52.061Z,18.70
2018-07-17T09:13:20.161Z,17.80
2018-07-17T09:15:48.249Z,17.00
2018-07-17T09:18:16.338Z,16.90
2018-07-17T09:20:44.436Z,18.10
2018-07-17T09:23:12.526Z,15.30
2018-07-17T09:25:40.640Z,14.90
2018-07-17T09:28:08.952Z,14.80
2018-07-17T09:30:42.485Z,15.40
2018-07-17T09:33:10.578Z,14.80
2018-07-17T09:35:38.657Z,17.00
2018-07-17T09:38:07.445Z,16.50
2018-07-17T09:40:35.524Z,13.30
2018-07-17T09:43:03.813Z,12.30
2018-07-17T09:45:32.208Z,11.60
2018-07-17T09:48:00.297Z,11.10
2018-07-17T09:50:28.406Z,14.60
2018-07-17T09:55:24.533Z,13.40
2018-07-17T09:57:52.813Z,14.00
2018-07-17T10:00:26.094Z,15.40
2018-07-17T10:02:54.181Z,12.80
2018-07-17T10:05:22.273Z,10.70
2018-07-17T10:07:50.365Z,11.30
2018-07-17T10:10:18.452Z,11.30
2018-07-17T10:12:46.550Z,11.70
2018-07-17T10:15:14.930Z,11.60
2018-07-17T10:17:43.173Z,9.50
2018-07-17T10:20:11.332Z,11.00
2018-07-17T10:22:39.725Z,11.80
2018-07-17T10:25:08.513Z,12.30
2018-07-17T10:27:36.784Z,12.40
2018-07-17T10:30:04.897Z,12.30
2018-07-17T10:35:01.013Z,10.80
2018-07-17T10:37:29.109Z,11.30
2018-07-17T10:39:57.210Z,12.70
2018-07-17T10:42:25.310Z,8.70
2018-07-17T10:44:53.456Z,10.80
2018-07-17T10:47:21.545Z,9.00
2018-07-17T10:49:49.657Z,10.00
2018-07-17T10:52:17.770Z,9.60
2018-07-17T10:54:45.877Z,8.10
2018-07-17T10:57:13.993Z,7.50
2018-07-17T10:59:42.119Z,5.70
2018-07-17T11:02:10.217Z,5.60
2018-07-17T11:04:38.404Z,8.90
2018-07-17T11:07:06.513Z,11.20
2018-07-17T11:09:34.592Z,12.60
2018-07-17T11:12:02.693Z,15.30
2018-07-17T11:14:30.804Z,14.90
2018-07-17T11:16:58.934Z,15.90
2018-07-17T11:19:27.077Z,16.80
2018-07-17T11:21:55.221Z,18.20
2018-07-17T11:24:23.349Z,19.70
2018-07-17T11:26:51.429Z,20.20
2018-07-17T11:34:15.837Z,19.80
2018-07-17T11:36:43.937Z,15.50
2018-07-17T11:39:12.036Z,15.40
2018-07-17T11:41:40.144Z,14.60
2018-07-17T11:44:08.248Z,14.40
2018-07-17T11:46:36.342Z,14.00
2018-07-17T11:49:04.921Z,14.50
2018-07-17T11:51:33.193Z,14.50
2018-07-17T11:54:01.276Z,10.80
2018-07-17T11:56:29.369Z,10.20
2018-07-17T11:58:57.481Z,12.50
2018-07-17T12:01:25.557Z,14.80
2018-07-17T12:03:53.665Z,13.10
2018-07-17T12:06:21.759Z,13.70
2018-07-17T12:08:49.893Z,16.40
2018-07-17T12:11:17.969Z,16.00
2018-07-17T12:13:46.052Z,24.00
2018-07-17T12:16:14.137Z,30.90
2018-07-17T12:18:42.229Z,33.50
2018-07-17T12:21:10.586Z,31.90
2018-07-17T12:23:38.697Z,35.40
2018-07-17T12:26:06.802Z,31.80
2018-07-17T12:28:34.925Z,29.10
2018-07-17T12:31:03.846Z,28.60
2018-07-17T12:33:32.126Z,33.80
2018-07-17T12:36:00.225Z,31.40
2018-07-17T12:38:28.339Z,25.60
2018-07-17T12:40:56.414Z,25.30
2018-07-17T12:43:24.512Z,26.20
2018-07-17T12:45:52.608Z,26.90
2018-07-17T12:48:20.699Z,27.40
2018-07-17T12:50:48.843Z,26.40
2018-07-17T12:53:16.933Z,26.10
2018-07-17T12:55:45.019Z,23.60
2018-07-17T12:58:13.105Z,26.60
2018-07-17T13:00:41.200Z,23.50
2018-07-17T13:05:37.162Z,19.90
2018-07-17T13:08:05.269Z,18.80
2018-07-17T13:10:33.357Z,18.80
2018-07-17T13:13:01.479Z,15.10
2018-07-17T13:15:29.578Z,14.50
2018-07-17T13:17:57.776Z,14.80
2018-07-17T13:20:25.725Z,18.90
2018-07-17T13:22:53.901Z,18.00
2018-07-17T13:25:22.001Z,19.80
2018-07-17T13:27:50.109Z,18.90
2018-07-17T13:30:18.922Z,18.40
2018-07-17T13:32:47.012Z,22.90
2018-07-17T13:35:15.105Z,25.20
2018-07-17T13:37:43.206Z,20.50
2018-07-17T13:40:11.301Z,18.90
2018-07-17T13:42:39.385Z,20.70
2018-07-17T13:45:07.493Z,21.60
2018-07-17T13:47:35.586Z,24.20
2018-07-17T13:50:03.746Z,20.90
2018-07-17T13:52:31.797Z,21.60
2018-07-17T13:54:59.884Z,20.50
2018-07-17T13:57:27.965Z,21.20
2018-07-17T13:59:56.160Z,21.30
2018-07-17T14:02:24.219Z,20.00
2018-07-17T14:04:52.297Z,19.60
2018-07-17T14:07:20.384Z,12.10
2018-07-17T14:09:48.480Z,11.90
2018-07-17T14:12:16.971Z,10.80
2018-07-17T14:14:45.038Z,9.30
2018-07-17T14:17:13.122Z,8.40
2018-07-17T14:19:41.201Z,6.90
2018-07-17T14:22:09.277Z,5.60
2018-07-17T14:24:37.377Z,5.70
2018-07-17T14:27:05.470Z,4.40
2018-07-17T14:29:33.568Z,4.70
2018-07-17T14:32:01.642Z,8.30
2018-07-17T14:36:57.585Z,7.20
2018-07-17T14:39:25.694Z,5.50
2018-07-17T14:41:53.821Z,5.60
2018-07-17T14:44:21.900Z,7.20
2018-07-17T14:46:49.995Z,8.00
2018-07-17T14:49:18.093Z,5.20
2018-07-17T14:51:46.203Z,7.30
2018-07-17T14:54:14.290Z,8.20
2018-07-17T14:59:10.245Z,9.80
2018-07-17T15:01:38.336Z,10.40
2018-07-17T15:04:06.429Z,7.90
2018-07-17T15:06:34.514Z,10.50
2018-07-17T15:09:02.614Z,9.60
2018-07-17T15:11:30.697Z,7.20
2018-07-17T15:13:58.868Z,7.80
2018-07-17T15:16:26.933Z,7.20
2018-07-17T15:18:55.013Z,5.70
2018-07-17T15:21:23.138Z,2.40
2018-07-17T15:23:51.204Z,1.00
2018-07-17T15:26:19.426Z,1.00
2018-07-17T15:28:47.549Z,1.00
2018-07-17T15:31:15.640Z,1.00
2018-07-17T15:33:43.717Z,1.00
2018-07-17T15:36:11.805Z,1.40
2018-07-17T15:38:40.103Z,1.00
2018-07-17T15:41:08.200Z,1.10
2018-07-17T15:43:36.572Z,1.50
2018-07-17T15:46:04.713Z,1.50
2018-07-17T15:48:32.821Z,2.00
2018-07-17T15:51:01.013Z,1.80
2018-07-17T15:53:29.113Z,2.00
2018-07-17T15:55:57.214Z,2.00
2018-07-17T15:58:25.316Z,1.50
2018-07-17T16:00:53.404Z,1.30
2018-07-17T16:03:21.508Z,1.10
2018-07-17T16:05:49.627Z,2.30
2018-07-17T16:08:17.693Z,3.50
2018-07-17T16:10:45.820Z,2.60
2018-07-17T16:13:13.980Z,3.10
2018-07-17T16:15:42.045Z,2.70
2018-07-17T16:18:10.117Z,2.90
2018-07-17T16:20:38.461Z,3.50
2018-07-17T16:23:06.548Z,2.60
2018-07-17T16:25:34.635Z,2.80
2018-07-17T16:28:02.719Z,5.20
2018-07-17T16:30:30.819Z,4.50
2018-07-17T16:32:58.897Z,5.70
2018-07-17T16:35:26.986Z,4.20
2018-07-17T16:37:55.158Z,4.20
2018-07-17T16:40:23.292Z,2.90
2018-07-17T16:42:51.361Z,3.30
2018-07-17T16:45:19.463Z,2.70
2018-07-17T16:47:47.533Z,3.00
2018-07-17T16:50:15.653Z,2.60
2018-07-17T16:52:43.734Z,2.00
2018-07-17T16:55:11.814Z,1.90
2018-07-17T16:57:39.910Z,2.50
2018-07-17T17:00:08.022Z,1.60
2018-07-17T17:02:36.155Z,1.10
2018-07-17T17:05:04.250Z,1.00
2018-07-17T17:07:32.350Z,1.00
2018-07-17T17:10:00.437Z,1.00
2018-07-17T17:12:28.560Z,1.60
2018-07-17T17:14:56.778Z,1.00
2018-07-17T17:17:24.759Z,1.00
2018-07-17T17:19:52.834Z,1.00
2018-07-17T17:22:20.979Z,1.00
2018-07-17T17:27:16.973Z,1.00
2018-07-17T17:29:45.123Z,1.00
2018-07-17T17:32:13.217Z,1.10
2018-07-17T17:34:41.399Z,1.00
2018-07-17T17:37:09.528Z,1.00
2018-07-17T17:39:37.659Z,1.00
2018-07-17T17:42:05.813Z,1.00
2018-07-17T17:44:33.881Z,1.00
2018-07-17T17:47:01.999Z,1.00
2018-07-17T17:49:30.081Z,1.40
2018-07-17T17:51:58.161Z,1.80
2018-07-17T17:54:26.456Z,2.20
2018-07-17T17:56:54.545Z,2.70
2018-07-17T18:01:57.145Z,3.00
2018-07-17T18:04:25.238Z,2.90
2018-07-17T18:06:53.342Z,3.50
2018-07-17T18:09:21.434Z,4.30
2018-07-17T18:11:49.551Z,4.20
2018-07-17T18:14:17.613Z,4.20
2018-07-17T18:16:45.713Z,5.00
2018-07-17T18:19:13.786Z,5.80
2018-07-17T18:21:41.898Z,5.00
2018-07-17T18:24:10.027Z,5.30
2018-07-17T18:26:38.120Z,4.80
2018-07-17T18:29:06.194Z,5.90
2018-07-17T18:31:34.293Z,6.50
2018-07-17T18:34:02.390Z,6.70
2018-07-17T18:36:30.833Z,7.10
2018-07-17T18:38:59.072Z,7.20
2018-07-17T18:41:27.305Z,5.70
2018-07-17T18:46:23.342Z,5.30
2018-07-17T18:48:51.425Z,5.50
2018-07-17T18:51:19.545Z,6.00
2018-07-17T18:53:47.760Z,7.40
2018-07-17T18:56:15.786Z,8.80
2018-07-17T18:58:44.824Z,8.00
2018-07-17T19:01:12.913Z,7.90
2018-07-17T19:03:41.021Z,8.10
2018-07-17T19:06:09.834Z,8.30
2018-07-17T19:08:38.205Z,9.10
2018-07-17T19:11:06.308Z,10.00
2018-07-17T19:13:34.393Z,8.80
2018-07-17T19:16:02.490Z,7.70
2018-07-17T19:18:30.578Z,7.30
2018-07-17T19:20:58.677Z,7.50
2018-07-17T19:23:27.796Z,6.80
2018-07-17T19:25:55.918Z,6.80
2018-07-17T19:28:23.994Z,8.70
2018-07-17T19:30:52.129Z,7.60
2018-07-17T19:33:20.205Z,7.90
2018-07-17T19:35:48.394Z,10.00
2018-07-17T19:38:16.382Z,9.90
2018-07-17T19:40:44.485Z,12.40
2018-07-17T19:43:12.556Z,12.90
2018-07-17T19:45:40.657Z,13.60
2018-07-17T19:48:08.738Z,14.10
2018-07-17T19:50:36.838Z,14.40
2018-07-17T19:53:05.001Z,14.00
2018-07-17T19:55:33.309Z,10.00
2018-07-17T19:58:01.377Z,8.20
2018-07-17T20:00:29.456Z,8.20
2018-07-17T20:02:57.541Z,8.20
2018-07-17T20:05:25.625Z,8.10
2018-07-17T20:07:53.765Z,8.10
2018-07-17T20:10:21.845Z,8.30
2018-07-17T20:12:49.942Z,8.00
2018-07-17T20:15:18.022Z,7.70
2018-07-17T20:17:46.110Z,8.10
2018-07-17T20:20:14.185Z,7.00
2018-07-17T20:22:42.261Z,7.00
2018-07-17T20:25:10.477Z,7.10
2018-07-17T20:27:38.569Z,6.90
2018-07-17T20:30:06.641Z,7.20
2018-07-17T20:32:34.753Z,6.90
2018-07-17T20:35:02.858Z,7.10
2018-07-17T20:37:30.944Z,7.00
2018-07-17T20:39:59.045Z,7.30
2018-07-17T20:42:27.140Z,7.40
2018-07-17T20:44:55.213Z,7.70
2018-07-17T20:47:23.297Z,7.80
2018-07-17T20:49:51.374Z,8.00
2018-07-17T20:52:19.516Z,8.60
2018-07-17T20:54:47.601Z,9.10
2018-07-17T20:57:15.713Z,10.20
2018-07-17T21:02:11.805Z,11.80
2018-07-17T21:04:39.881Z,11.20
2018-07-17T21:07:07.969Z,11.60
2018-07-17T21:09:36.052Z,11.70
2018-07-17T21:12:04.140Z,12.40
2018-07-17T21:17:00.208Z,15.70
2018-07-17T21:19:28.289Z,17.30
2018-07-17T21:21:56.397Z,16.70
2018-07-17T21:24:24.525Z,16.70
2018-07-17T21:26:52.625Z,15.50
2018-07-17T21:29:20.709Z,15.60
2018-07-17T21:31:48.808Z,16.80
2018-07-17T21:34:16.903Z,18.60
2018-07-17T21:36:45.001Z,19.50
2018-07-17T21:39:14.149Z,19.10
2018-07-17T21:41:42.226Z,18.30
2018-07-17T21:44:10.345Z,18.30
2018-07-17T21:46:38.454Z,17.70
2018-07-17T21:49:06.547Z,17.40
2018-07-17T21:51:34.633Z,17.70
2018-07-17T21:54:02.713Z,17.20
2018-07-17T21:56:30.798Z,17.70
2018-07-17T21:58:58.873Z,18.10
2018-07-17T22:01:26.957Z,18.90
2018-07-17T22:03:55.037Z,19.40
2018-07-17T22:06:23.109Z,21.20
2018-07-17T22:08:51.223Z,21.50
2018-07-17T22:11:19.318Z,20.90
2018-07-17T22:13:47.438Z,21.50
2018-07-17T22:18:43.442Z,22.90
2018-07-17T22:21:11.533Z,22.60
2018-07-17T22:23:39.647Z,23.50
2018-07-17T22:26:07.737Z,22.80
2018-07-17T22:28:35.822Z,21.50
2018-07-17T22:31:03.909Z,21.10
2018-07-17T22:33:32.001Z,21.00
2018-07-17T22:36:00.090Z,20.90
2018-07-17T22:38:28.241Z,20.60
2018-07-17T22:40:56.325Z,21.00
2018-07-17T22:43:24.417Z,21.50
2018-07-17T22:45:52.497Z,23.80
2018-07-17T22:48:20.593Z,23.10
2018-07-17T22:50:48.674Z,22.50
2018-07-17T22:53:16.765Z,21.00
2018-07-17T22:55:44.852Z,22.30
2018-07-17T22:58:12.938Z,23.90
2018-07-17T23:00:41.025Z,24.80
2018-07-17T23:03:09.144Z,25.50
2018-07-17T23:05:37.213Z,24.70
2018-07-17T23:08:05.362Z,25.80
2018-07-17T23:10:33.445Z,25.90
2018-07-17T23:13:01.576Z,26.20
2018-07-17T23:15:29.653Z,26.50
2018-07-17T23:17:57.744Z,26.80
2018-07-17T23:20:25.825Z,26.60
2018-07-17T23:22:56.031Z,24.50
2018-07-17T23:25:25.432Z,25.10
2018-07-17T23:27:54.020Z,25.60
2018-07-17T23:30:22.097Z,27.30
2018-07-17T23:32:50.987Z,26.60
2018-07-17T23:35:20.393Z,29.00
2018-07-17T23:37:48.773Z,29.40
2018-07-17T23:40:16.849Z,30.00
2018-07-17T23:42:44.942Z,28.80
2018-07-17T23:45:13.681Z,29.20
2018-07-17T23:47:41.765Z,28.30
2018-07-17T23:50:09.873Z,26.70
2018-07-17T23:52:37.961Z,25.10
2018-07-17T23:55:06.191Z,27.90
2018-07-17T23:57:34.289Z,28.30
